sensor_id;sensor_type;location;lat;lon;timestamp;pressure;altitude;pressure_sealevel;temperature;humidity
76592;BME280;65481;47.600;19.682;2024-01-25T00:00:33;100432.38;;;3.03;100.00
76592;BME280;65481;47.600;19.682;2024-01-25T00:05:33;100435.25;;;3.17;100.00
76592;BME280;65481;47.600;19.682;2024-01-25T00:10:34;100428.84;;;3.20;100.00
76592;BME280;65481;47.600;19.682;2024-01-25T00:15:34;100423.75;;;3.26;100.00
76592;BME280;65481;47.600;19.682;2024-01-25T00:20:35;100415.09;;;3.49;100.00
76592;BME280;65481;47.600;19.682;2024-01-25T00:25:35;100410.03;;;3.71;100.00
76592;BME280;65481;47.600;19.682;2024-01-25T00:30:36;100413.75;;;3.91;100.00
76592;BME280;65481;47.600;19.682;2024-01-25T00:35:37;100417.16;;;4.07;100.00
76592;BME280;65481;47.600;19.682;2024-01-25T00:40:37;100431.66;;;4.24;100.00
76592;BME280;65481;47.600;19.682;2024-01-25T00:45:39;100439.19;;;4.49;100.00
76592;BME280;65481;47.600;19.682;2024-01-25T00:50:39;100446.03;;;4.50;100.00
76592;BME280;65481;47.600;19.682;2024-01-25T00:55:40;100438.91;;;4.74;100.00
76592;BME280;65481;47.600;19.682;2024-01-25T01:00:41;100430.66;;;5.14;100.00
76592;BME280;65481;47.600;19.682;2024-01-25T01:05:42;100431.91;;;5.18;100.00
76592;BME280;65481;47.600;19.682;2024-01-25T01:10:43;100438.94;;;5.18;100.00
76592;BME280;65481;47.600;19.682;2024-01-25T01:15:43;100434.63;;;5.31;100.00
76592;BME280;65481;47.600;19.682;2024-01-25T01:20:43;100438.88;;;5.33;100.00
76592;BME280;65481;47.600;19.682;2024-01-25T01:25:44;100438.50;;;5.36;100.00
76592;BME280;65481;47.600;19.682;2024-01-25T01:30:44;100439.69;;;5.11;100.00
76592;BME280;65481;47.600;19.682;2024-01-25T01:35:45;100439.00;;;5.03;100.00
76592;BME280;65481;47.600;19.682;2024-01-25T01:40:46;100420.19;;;4.92;100.00
76592;BME280;65481;47.600;19.682;2024-01-25T01:45:47;100414.88;;;4.85;100.00
76592;BME280;65481;47.600;19.682;2024-01-25T01:50:47;100408.34;;;4.75;100.00
76592;BME280;65481;47.600;19.682;2024-01-25T01:55:48;100384.31;;;4.86;100.00
76592;BME280;65481;47.600;19.682;2024-01-25T02:00:49;100383.09;;;5.04;100.00
76592;BME280;65481;47.600;19.682;2024-01-25T02:05:50;100389.41;;;5.16;100.00
76592;BME280;65481;47.600;19.682;2024-01-25T02:10:51;100376.59;;;4.99;100.00
76592;BME280;65481;47.600;19.682;2024-01-25T02:15:51;100366.38;;;5.26;100.00
76592;BME280;65481;47.600;19.682;2024-01-25T02:20:52;100373.41;;;5.26;100.00
76592;BME280;65481;47.600;19.682;2024-01-25T02:25:53;100377.22;;;5.23;100.00
76592;BME280;65481;47.600;19.682;2024-01-25T02:30:53;100381.88;;;5.28;100.00
76592;BME280;65481;47.600;19.682;2024-01-25T02:35:54;100393.41;;;5.12;100.00
76592;BME280;65481;47.600;19.682;2024-01-25T02:40:54;100401.44;;;4.89;100.00
76592;BME280;65481;47.600;19.682;2024-01-25T02:45:55;100399.63;;;4.67;100.00
76592;BME280;65481;47.600;19.682;2024-01-25T02:50:55;100401.97;;;4.62;100.00
76592;BME280;65481;47.600;19.682;2024-01-25T02:55:56;100395.41;;;4.51;100.00
76592;BME280;65481;47.600;19.682;2024-01-25T03:00:56;100392.78;;;4.51;100.00
76592;BME280;65481;47.600;19.682;2024-01-25T03:05:57;100394.09;;;4.77;100.00
76592;BME280;65481;47.600;19.682;2024-01-25T03:10:57;100395.84;;;4.92;100.00
76592;BME280;65481;47.600;19.682;2024-01-25T03:15:58;100392.97;;;5.08;100.00
76592;BME280;65481;47.600;19.682;2024-01-25T03:20:58;100405.47;;;5.13;100.00
76592;BME280;65481;47.600;19.682;2024-01-25T03:26:01;100404.53;;;5.21;100.00
76592;BME280;65481;47.600;19.682;2024-01-25T03:31:02;100400.34;;;5.20;100.00
76592;BME280;65481;47.600;19.682;2024-01-25T03:36:03;100404.13;;;5.17;100.00
76592;BME280;65481;47.600;19.682;2024-01-25T03:41:04;100400.03;;;5.08;100.00
76592;BME280;65481;47.600;19.682;2024-01-25T03:46:04;100397.47;;;4.93;100.00
76592;BME280;65481;47.600;19.682;2024-01-25T03:51:05;100391.34;;;4.85;100.00
76592;BME280;65481;47.600;19.682;2024-01-25T03:56:11;100404.31;;;4.94;100.00
76592;BME280;65481;47.600;19.682;2024-01-25T04:01:12;100409.16;;;4.97;100.00
76592;BME280;65481;47.600;19.682;2024-01-25T04:06:13;100412.94;;;4.94;100.00
76592;BME280;65481;47.600;19.682;2024-01-25T04:11:13;100418.47;;;4.84;100.00
76592;BME280;65481;47.600;19.682;2024-01-25T04:16:14;100410.44;;;4.64;100.00
76592;BME280;65481;47.600;19.682;2024-01-25T04:21:15;100413.53;;;4.53;100.00
76592;BME280;65481;47.600;19.682;2024-01-25T04:26:15;100394.53;;;4.44;100.00
76592;BME280;65481;47.600;19.682;2024-01-25T04:31:18;100397.06;;;4.37;100.00
76592;BME280;65481;47.600;19.682;2024-01-25T04:36:19;100379.06;;;4.28;100.00
76592;BME280;65481;47.600;19.682;2024-01-25T04:41:20;100369.53;;;4.20;100.00
76592;BME280;65481;47.600;19.682;2024-01-25T04:46:20;100377.03;;;4.45;100.00
76592;BME280;65481;47.600;19.682;2024-01-25T04:51:21;100375.88;;;4.47;100.00
76592;BME280;65481;47.600;19.682;2024-01-25T04:56:21;100380.63;;;4.59;100.00
76592;BME280;65481;47.600;19.682;2024-01-25T05:01:22;100388.97;;;4.69;100.00
76592;BME280;65481;47.600;19.682;2024-01-25T05:06:22;100391.28;;;4.79;100.00
76592;BME280;65481;47.600;19.682;2024-01-25T05:11:23;100405.31;;;4.93;100.00
76592;BME280;65481;47.600;19.682;2024-01-25T05:16:23;100406.00;;;5.02;100.00
76592;BME280;65481;47.600;19.682;2024-01-25T05:21:23;100414.53;;;5.10;100.00
76592;BME280;65481;47.600;19.682;2024-01-25T05:26:24;100423.16;;;5.33;100.00
76592;BME280;65481;47.600;19.682;2024-01-25T05:31:24;100431.09;;;5.18;100.00
76592;BME280;65481;47.600;19.682;2024-01-25T05:36:25;100442.88;;;5.28;100.00
76592;BME280;65481;47.600;19.682;2024-01-25T05:41:25;100439.69;;;5.33;99.84
76592;BME280;65481;47.600;19.682;2024-01-25T05:46:26;100435.41;;;5.25;99.78
76592;BME280;65481;47.600;19.682;2024-01-25T05:51:27;100419.56;;;5.12;100.00
76592;BME280;65481;47.600;19.682;2024-01-25T05:56:27;100427.97;;;5.07;100.00
76592;BME280;65481;47.600;19.682;2024-01-25T06:01:28;100423.88;;;4.98;100.00
76592;BME280;65481;47.600;19.682;2024-01-25T06:06:28;100409.91;;;4.91;100.00
76592;BME280;65481;47.600;19.682;2024-01-25T06:11:29;100392.44;;;4.91;100.00
76592;BME280;65481;47.600;19.682;2024-01-25T06:21:50;100394.25;;;4.76;100.00
76592;BME280;65481;47.600;19.682;2024-01-25T06:26:50;100393.47;;;4.97;100.00
76592;BME280;65481;47.600;19.682;2024-01-25T06:31:51;100390.72;;;5.05;100.00
76592;BME280;65481;47.600;19.682;2024-01-25T06:36:51;100395.66;;;5.15;100.00
76592;BME280;65481;47.600;19.682;2024-01-25T06:41:51;100384.88;;;5.25;100.00
76592;BME280;65481;47.600;19.682;2024-01-25T06:46:52;100386.00;;;5.37;99.55
76592;BME280;65481;47.600;19.682;2024-01-25T06:51:52;100372.66;;;5.32;99.85
76592;BME280;65481;47.600;19.682;2024-01-25T06:56:53;100383.25;;;5.24;100.00
76592;BME280;65481;47.600;19.682;2024-01-25T07:01:56;100387.09;;;5.28;100.00
76592;BME280;65481;47.600;19.682;2024-01-25T07:06:57;100383.06;;;5.47;100.00
76592;BME280;65481;47.600;19.682;2024-01-25T07:11:59;100370.47;;;5.64;100.00
76592;BME280;65481;47.600;19.682;2024-01-25T07:16:59;100376.97;;;6.03;99.15
76592;BME280;65481;47.600;19.682;2024-01-25T07:21:59;100386.88;;;6.57;97.21
76592;BME280;65481;47.600;19.682;2024-01-25T07:27:00;100385.94;;;7.05;94.21
76592;BME280;65481;47.600;19.682;2024-01-25T07:32:02;100384.69;;;6.74;94.72
76592;BME280;65481;47.600;19.682;2024-01-25T07:37:03;100403.03;;;6.67;95.11
76592;BME280;65481;47.600;19.682;2024-01-25T07:42:04;100423.72;;;7.37;92.28
76592;BME280;65481;47.600;19.682;2024-01-25T07:47:04;100429.72;;;8.05;89.50
76592;BME280;65481;47.600;19.682;2024-01-25T07:52:05;100433.41;;;8.63;87.96
76592;BME280;65481;47.600;19.682;2024-01-25T07:57:05;100442.28;;;9.07;85.77
76592;BME280;65481;47.600;19.682;2024-01-25T08:02:06;100451.13;;;9.20;84.53
76592;BME280;65481;47.600;19.682;2024-01-25T08:07:06;100451.78;;;9.66;82.85
76592;BME280;65481;47.600;19.682;2024-01-25T08:12:07;100451.72;;;9.73;81.93
76592;BME280;65481;47.600;19.682;2024-01-25T08:17:07;100454.00;;;10.32;78.91
76592;BME280;65481;47.600;19.682;2024-01-25T08:22:07;100448.53;;;10.82;76.12
76592;BME280;65481;47.600;19.682;2024-01-25T08:27:10;100458.53;;;11.23;74.40
76592;BME280;65481;47.600;19.682;2024-01-25T08:32:10;100453.88;;;11.72;70.66
76592;BME280;65481;47.600;19.682;2024-01-25T08:37:11;100461.25;;;11.94;69.90
76592;BME280;65481;47.600;19.682;2024-01-25T08:42:11;100457.56;;;12.07;68.10
76592;BME280;65481;47.600;19.682;2024-01-25T08:47:12;100453.34;;;12.47;66.41
76592;BME280;65481;47.600;19.682;2024-01-25T08:52:14;100457.81;;;12.46;65.10
76592;BME280;65481;47.600;19.682;2024-01-25T08:57:15;100473.41;;;12.71;64.38
76592;BME280;65481;47.600;19.682;2024-01-25T09:02:16;100476.22;;;12.94;62.85
76592;BME280;65481;47.600;19.682;2024-01-25T09:07:17;100480.44;;;13.24;61.65
76592;BME280;65481;47.600;19.682;2024-01-25T09:12:17;100490.56;;;13.27;60.34
76592;BME280;65481;47.600;19.682;2024-01-25T09:17:18;100499.75;;;13.24;60.02
76592;BME280;65481;47.600;19.682;2024-01-25T09:22:22;100518.00;;;13.50;59.36
76592;BME280;65481;47.600;19.682;2024-01-25T09:27:22;100526.03;;;13.55;57.86
76592;BME280;65481;47.600;19.682;2024-01-25T09:32:23;100514.06;;;13.52;58.06
76592;BME280;65481;47.600;19.682;2024-01-25T09:37:23;100512.59;;;13.61;57.83
76592;BME280;65481;47.600;19.682;2024-01-25T09:42:24;100501.22;;;13.61;57.46
76592;BME280;65481;47.600;19.682;2024-01-25T09:47:25;100518.13;;;13.43;58.52
76592;BME280;65481;47.600;19.682;2024-01-25T09:52:27;100515.88;;;13.52;57.60
76592;BME280;65481;47.600;19.682;2024-01-25T09:57:28;100501.22;;;13.61;58.16
76592;BME280;65481;47.600;19.682;2024-01-25T10:02:30;100490.28;;;13.74;57.55
76592;BME280;65481;47.600;19.682;2024-01-25T10:07:40;100483.78;;;13.65;57.63
76592;BME280;65481;47.600;19.682;2024-01-25T10:12:42;100480.31;;;13.82;57.15
76592;BME280;65481;47.600;19.682;2024-01-25T10:17:43;100483.97;;;13.12;59.00
76592;BME280;65481;47.600;19.682;2024-01-25T10:22:44;100495.53;;;12.13;62.20
76592;BME280;65481;47.600;19.682;2024-01-25T10:27:44;100479.88;;;10.90;63.21
76592;BME280;65481;47.600;19.682;2024-01-25T10:32:45;100478.75;;;10.68;65.61
76592;BME280;65481;47.600;19.682;2024-01-25T10:37:46;100487.44;;;10.87;65.66
76592;BME280;65481;47.600;19.682;2024-01-25T10:42:48;100478.06;;;10.17;69.28
76592;BME280;65481;47.600;19.682;2024-01-25T10:47:49;100475.94;;;10.07;66.24
76592;BME280;65481;47.600;19.682;2024-01-25T10:52:52;100466.44;;;11.23;63.17
76592;BME280;65481;47.600;19.682;2024-01-25T10:57:58;100469.81;;;10.50;63.40
76592;BME280;65481;47.600;19.682;2024-01-25T11:03:01;100477.78;;;11.11;63.00
76592;BME280;65481;47.600;19.682;2024-01-25T11:08:17;100483.44;;;10.84;64.13
76592;BME280;65481;47.600;19.682;2024-01-25T11:13:43;100457.41;;;10.32;65.02
76592;BME280;65481;47.600;19.682;2024-01-25T11:18:49;100465.09;;;10.15;66.68
76592;BME280;65481;47.600;19.682;2024-01-25T11:24:05;100462.19;;;11.21;64.14
76592;BME280;65481;47.600;19.682;2024-01-25T11:29:09;100441.91;;;11.46;62.30
76592;BME280;65481;47.600;19.682;2024-01-25T11:34:11;100463.72;;;11.53;62.27
76592;BME280;65481;47.600;19.682;2024-01-25T11:39:14;100467.66;;;11.62;61.10
76592;BME280;65481;47.600;19.682;2024-01-25T11:44:18;100471.53;;;11.60;61.99
76592;BME280;65481;47.600;19.682;2024-01-25T11:49:24;100456.84;;;11.40;61.04
76592;BME280;65481;47.600;19.682;2024-01-25T11:54:30;100449.88;;;11.15;62.41
76592;BME280;65481;47.600;19.682;2024-01-25T11:59:30;100461.97;;;11.23;61.90
76592;BME280;65481;47.600;19.682;2024-01-25T12:04:31;100462.88;;;11.29;62.52
76592;BME280;65481;47.600;19.682;2024-01-25T12:09:31;100454.97;;;11.29;61.82
76592;BME280;65481;47.600;19.682;2024-01-25T12:14:32;100463.56;;;11.24;61.06
76592;BME280;65481;47.600;19.682;2024-01-25T12:19:32;100444.16;;;11.18;62.39
76592;BME280;65481;47.600;19.682;2024-01-25T12:24:33;100460.50;;;11.27;62.55
76592;BME280;65481;47.600;19.682;2024-01-25T12:29:33;100444.16;;;11.18;62.99
76592;BME280;65481;47.600;19.682;2024-01-25T12:34:34;100445.50;;;11.09;64.68
76592;BME280;65481;47.600;19.682;2024-01-25T12:39:34;100452.03;;;10.76;62.53
76592;BME280;65481;47.600;19.682;2024-01-25T12:44:35;100448.25;;;10.53;66.35
76592;BME280;65481;47.600;19.682;2024-01-25T12:49:35;100441.53;;;10.39;63.67
76592;BME280;65481;47.600;19.682;2024-01-25T12:54:36;100419.47;;;10.52;65.26
76592;BME280;65481;47.600;19.682;2024-01-25T12:59:36;100433.09;;;10.49;64.90
76592;BME280;65481;47.600;19.682;2024-01-25T13:04:38;100436.28;;;10.39;62.91
76592;BME280;65481;47.600;19.682;2024-01-25T13:09:38;100427.75;;;10.37;63.03
76592;BME280;65481;47.600;19.682;2024-01-25T13:14:39;100420.50;;;10.13;63.55
76592;BME280;65481;47.600;19.682;2024-01-25T13:19:39;100432.38;;;10.04;64.38
76592;BME280;65481;47.600;19.682;2024-01-25T13:24:40;100438.78;;;9.90;65.47
76592;BME280;65481;47.600;19.682;2024-01-25T13:29:40;100426.50;;;9.83;66.57
76592;BME280;65481;47.600;19.682;2024-01-25T13:34:40;100446.59;;;9.78;66.51
76592;BME280;65481;47.600;19.682;2024-01-25T13:39:41;100436.19;;;9.64;66.69
76592;BME280;65481;47.600;19.682;2024-01-25T13:44:41;100438.56;;;9.47;67.75
76592;BME280;65481;47.600;19.682;2024-01-25T13:49:42;100440.66;;;9.38;67.35
76592;BME280;65481;47.600;19.682;2024-01-25T13:54:44;100444.19;;;9.26;69.61
76592;BME280;65481;47.600;19.682;2024-01-25T13:59:45;100431.06;;;9.19;68.51
76592;BME280;65481;47.600;19.682;2024-01-25T14:04:45;100440.06;;;9.04;68.94
76592;BME280;65481;47.600;19.682;2024-01-25T14:09:46;100429.41;;;8.92;68.45
76592;BME280;65481;47.600;19.682;2024-01-25T14:14:47;100442.25;;;8.75;70.08
76592;BME280;65481;47.600;19.682;2024-01-25T14:19:48;100443.94;;;8.63;69.90
76592;BME280;65481;47.600;19.682;2024-01-25T14:24:48;100461.78;;;8.47;71.03
76592;BME280;65481;47.600;19.682;2024-01-25T14:29:49;100475.53;;;8.36;70.86
76592;BME280;65481;47.600;19.682;2024-01-25T14:34:49;100472.56;;;8.26;70.79
76592;BME280;65481;47.600;19.682;2024-01-25T14:39:50;100475.78;;;8.14;70.46
76592;BME280;65481;47.600;19.682;2024-01-25T14:44:50;100482.28;;;8.05;71.78
76592;BME280;65481;47.600;19.682;2024-01-25T14:49:51;100499.50;;;7.87;72.99
76592;BME280;65481;47.600;19.682;2024-01-25T14:54:52;100485.75;;;7.72;73.30
76592;BME280;65481;47.600;19.682;2024-01-25T14:59:52;100501.50;;;7.58;74.04
76592;BME280;65481;47.600;19.682;2024-01-25T15:04:53;100502.72;;;7.49;73.92
76592;BME280;65481;47.600;19.682;2024-01-25T15:09:53;100509.34;;;7.32;74.91
76592;BME280;65481;47.600;19.682;2024-01-25T15:14:54;100510.97;;;7.33;74.16
76592;BME280;65481;47.600;19.682;2024-01-25T15:19:54;100524.88;;;7.26;74.62
76592;BME280;65481;47.600;19.682;2024-01-25T15:24:54;100521.84;;;7.16;75.13
76592;BME280;65481;47.600;19.682;2024-01-25T15:29:55;100537.97;;;7.13;75.55
76592;BME280;65481;47.600;19.682;2024-01-25T15:34:55;100541.75;;;7.04;75.96
76592;BME280;65481;47.600;19.682;2024-01-25T15:39:56;100553.47;;;7.01;75.48
76592;BME280;65481;47.600;19.682;2024-01-25T15:44:56;100553.84;;;6.98;75.69
76592;BME280;65481;47.600;19.682;2024-01-25T15:49:57;100551.22;;;6.98;75.83
76592;BME280;65481;47.600;19.682;2024-01-25T15:54:57;100549.97;;;6.87;76.38
76592;BME280;65481;47.600;19.682;2024-01-25T16:00:01;100562.25;;;6.80;77.24
76592;BME280;65481;47.600;19.682;2024-01-25T16:05:03;100568.09;;;6.75;77.06
76592;BME280;65481;47.600;19.682;2024-01-25T16:10:07;100562.78;;;6.69;77.46
76592;BME280;65481;47.600;19.682;2024-01-25T16:15:09;100556.72;;;6.61;78.17
76592;BME280;65481;47.600;19.682;2024-01-25T16:20:10;100566.09;;;6.49;78.63
76592;BME280;65481;47.600;19.682;2024-01-25T16:25:11;100570.13;;;6.45;78.79
76592;BME280;65481;47.600;19.682;2024-01-25T16:30:12;100569.88;;;6.40;79.38
76592;BME280;65481;47.600;19.682;2024-01-25T16:35:13;100583.13;;;6.31;80.32
76592;BME280;65481;47.600;19.682;2024-01-25T16:40:13;100581.50;;;6.30;80.06
76592;BME280;65481;47.600;19.682;2024-01-25T16:45:14;100572.16;;;6.21;80.50
76592;BME280;65481;47.600;19.682;2024-01-25T16:50:14;100577.97;;;6.16;80.92
76592;BME280;65481;47.600;19.682;2024-01-25T16:55:15;100590.03;;;6.11;81.10
76592;BME280;65481;47.600;19.682;2024-01-25T17:00:16;100606.75;;;6.10;81.32
76592;BME280;65481;47.600;19.682;2024-01-25T17:05:16;100611.38;;;6.08;81.20
76592;BME280;65481;47.600;19.682;2024-01-25T17:10:17;100615.84;;;6.14;81.02
76592;BME280;65481;47.600;19.682;2024-01-25T17:15:19;100620.44;;;6.12;80.79
76592;BME280;65481;47.600;19.682;2024-01-25T17:20:20;100623.69;;;6.14;81.06
76592;BME280;65481;47.600;19.682;2024-01-25T17:25:20;100623.53;;;6.15;80.50
76592;BME280;65481;47.600;19.682;2024-01-25T17:30:21;100629.25;;;6.04;81.59
76592;BME280;65481;47.600;19.682;2024-01-25T17:35:21;100628.13;;;6.13;81.01
76592;BME280;65481;47.600;19.682;2024-01-25T17:40:22;100627.88;;;6.08;81.43
76592;BME280;65481;47.600;19.682;2024-01-25T17:45:23;100626.31;;;6.14;80.36
76592;BME280;65481;47.600;19.682;2024-01-25T17:50:24;100641.25;;;6.13;80.22
76592;BME280;65481;47.600;19.682;2024-01-25T17:55:24;100635.38;;;6.11;80.08
76592;BME280;65481;47.600;19.682;2024-01-25T18:00:25;100638.09;;;6.03;79.99
76592;BME280;65481;47.600;19.682;2024-01-25T18:05:26;100646.88;;;5.95;80.62
76592;BME280;65481;47.600;19.682;2024-01-25T18:10:26;100642.41;;;5.89;80.41
76592;BME280;65481;47.600;19.682;2024-01-25T18:15:26;100649.38;;;5.82;80.74
76592;BME280;65481;47.600;19.682;2024-01-25T18:20:27;100656.34;;;5.74;81.16
76592;BME280;65481;47.600;19.682;2024-01-25T18:25:28;100655.47;;;5.67;81.25
76592;BME280;65481;47.600;19.682;2024-01-25T18:30:28;100656.88;;;5.70;81.38
76592;BME280;65481;47.600;19.682;2024-01-25T18:35:29;100659.16;;;5.58;81.97
76592;BME280;65481;47.600;19.682;2024-01-25T18:40:31;100653.69;;;5.53;82.50
76592;BME280;65481;47.600;19.682;2024-01-25T18:45:32;100643.75;;;5.48;82.77
76592;BME280;65481;47.600;19.682;2024-01-25T18:50:33;100641.25;;;5.40;83.37
76592;BME280;65481;47.600;19.682;2024-01-25T18:55:35;100626.63;;;5.45;82.54
76592;BME280;65481;47.600;19.682;2024-01-25T19:00:36;100638.00;;;5.53;82.04
76592;BME280;65481;47.600;19.682;2024-01-25T19:05:38;100653.41;;;5.48;82.32
76592;BME280;65481;47.600;19.682;2024-01-25T19:10:40;100663.69;;;5.49;82.49
76592;BME280;65481;47.600;19.682;2024-01-25T19:15:41;100677.97;;;5.46;82.91
76592;BME280;65481;47.600;19.682;2024-01-25T19:20:42;100677.63;;;5.35;84.02
76592;BME280;65481;47.600;19.682;2024-01-25T19:25:44;100678.44;;;5.35;84.39
76592;BME280;65481;47.600;19.682;2024-01-25T19:30:45;100675.56;;;5.30;84.87
76592;BME280;65481;47.600;19.682;2024-01-25T19:35:46;100679.06;;;5.22;85.39
76592;BME280;65481;47.600;19.682;2024-01-25T19:40:49;100683.88;;;5.19;86.17
76592;BME280;65481;47.600;19.682;2024-01-25T19:45:51;100683.59;;;5.13;86.85
76592;BME280;65481;47.600;19.682;2024-01-25T19:50:52;100682.41;;;5.16;86.91
76592;BME280;65481;47.600;19.682;2024-01-25T19:55:53;100684.75;;;5.26;86.72
76592;BME280;65481;47.600;19.682;2024-01-25T20:00:56;100686.38;;;5.27;86.79
76592;BME280;65481;47.600;19.682;2024-01-25T20:05:57;100695.41;;;5.24;87.22
76592;BME280;65481;47.600;19.682;2024-01-25T20:10:59;100696.03;;;5.26;87.24
76592;BME280;65481;47.600;19.682;2024-01-25T20:16:00;100699.38;;;5.35;86.53
76592;BME280;65481;47.600;19.682;2024-01-25T20:21:01;100704.63;;;5.35;86.22
76592;BME280;65481;47.600;19.682;2024-01-25T20:26:03;100695.84;;;5.28;86.12
76592;BME280;65481;47.600;19.682;2024-01-25T20:31:04;100704.53;;;5.13;86.93
76592;BME280;65481;47.600;19.682;2024-01-25T20:36:06;100709.47;;;5.08;86.43
76592;BME280;65481;47.600;19.682;2024-01-25T20:41:08;100719.38;;;5.13;85.26
76592;BME280;65481;47.600;19.682;2024-01-25T20:46:09;100722.13;;;5.20;84.33
76592;BME280;65481;47.600;19.682;2024-01-25T20:51:11;100731.56;;;5.21;83.96
76592;BME280;65481;47.600;19.682;2024-01-25T20:56:11;100731.31;;;5.15;83.97
76592;BME280;65481;47.600;19.682;2024-01-25T21:01:12;100733.19;;;5.07;84.42
76592;BME280;65481;47.600;19.682;2024-01-25T21:06:13;100732.47;;;4.98;84.00
76592;BME280;65481;47.600;19.682;2024-01-25T21:11:14;100736.59;;;4.92;84.52
76592;BME280;65481;47.600;19.682;2024-01-25T21:16:16;100734.16;;;4.91;84.50
76592;BME280;65481;47.600;19.682;2024-01-25T21:21:17;100748.56;;;4.87;84.18
76592;BME280;65481;47.600;19.682;2024-01-25T21:26:17;100749.28;;;4.80;84.47
76592;BME280;65481;47.600;19.682;2024-01-25T21:31:18;100748.56;;;4.87;84.01
76592;BME280;65481;47.600;19.682;2024-01-25T21:36:18;100735.97;;;4.90;83.65
76592;BME280;65481;47.600;19.682;2024-01-25T21:41:19;100740.31;;;4.98;82.80
76592;BME280;65481;47.600;19.682;2024-01-25T21:46:19;100734.97;;;5.06;82.48
76592;BME280;65481;47.600;19.682;2024-01-25T21:51:21;100717.03;;;5.03;82.52
76592;BME280;65481;47.600;19.682;2024-01-25T21:56:21;100717.22;;;5.02;82.67
76592;BME280;65481;47.600;19.682;2024-01-25T22:01:21;100713.16;;;4.99;83.10
76592;BME280;65481;47.600;19.682;2024-01-25T22:06:22;100715.31;;;4.95;83.39
76592;BME280;65481;47.600;19.682;2024-01-25T22:11:22;100702.50;;;4.85;84.27
76592;BME280;65481;47.600;19.682;2024-01-25T22:16:23;100713.13;;;4.84;84.63
76592;BME280;65481;47.600;19.682;2024-01-25T22:21:23;100711.44;;;4.91;84.71
76592;BME280;65481;47.600;19.682;2024-01-25T22:26:24;100720.34;;;4.82;85.29
76592;BME280;65481;47.600;19.682;2024-01-25T22:31:24;100724.47;;;4.76;86.07
76592;BME280;65481;47.600;19.682;2024-01-25T22:36:25;100731.88;;;4.73;86.46
76592;BME280;65481;47.600;19.682;2024-01-25T22:41:25;100732.28;;;4.61;87.21
76592;BME280;65481;47.600;19.682;2024-01-25T22:46:25;100730.38;;;4.32;88.92
76592;BME280;65481;47.600;19.682;2024-01-25T22:51:26;100728.25;;;4.04;90.77
76592;BME280;65481;47.600;19.682;2024-01-25T22:56:26;100735.63;;;3.69;93.33
76592;BME280;65481;47.600;19.682;2024-01-25T23:01:30;100751.34;;;3.44;95.57
76592;BME280;65481;47.600;19.682;2024-01-25T23:06:31;100753.97;;;3.44;96.61
76592;BME280;65481;47.600;19.682;2024-01-25T23:11:31;100754.09;;;3.51;96.22
76592;BME280;65481;47.600;19.682;2024-01-25T23:16:32;100760.44;;;3.56;96.49
76592;BME280;65481;47.600;19.682;2024-01-25T23:21:32;100754.22;;;3.57;96.91
76592;BME280;65481;47.600;19.682;2024-01-25T23:26:33;100760.97;;;3.43;98.66
76592;BME280;65481;47.600;19.682;2024-01-25T23:31:33;100764.44;;;3.36;99.51
76592;BME280;65481;47.600;19.682;2024-01-25T23:36:35;100763.91;;;3.40;100.00
76592;BME280;65481;47.600;19.682;2024-01-25T23:41:36;100766.66;;;3.55;99.69
76592;BME280;65481;47.600;19.682;2024-01-25T23:46:37;100759.31;;;3.59;99.49
76592;BME280;65481;47.600;19.682;2024-01-25T23:51:41;100764.53;;;3.51;100.00
76592;BME280;65481;47.600;19.682;2024-01-25T23:56:42;100748.72;;;3.52;100.00
